Geneva, NE (68361)

7:35 AM CST on January 30, 2015 (GMT -0600)
Geneva | Change Station
CLOSE
Current Station
Personal Weather Station
Location: Geneva, NE
Elevation: 1640 ft
Nearby Weather Stations

Elev 1640 ft 40.53 °N, 97.61 °W | Updated 1 second ago

Mostly Cloudy
Mostly Cloudy
19.4 °F
Feels Like 19 °F
N
1.1
Wind Variable Wind from SW
Gusts 2.5 mph

Today
High -- | Low -- °F
--% Chance of Precip.
Yesterday
High -- | Low -- °F
Precip. -- in
7:42 AM 5:45 PM
Waxing Gibbous, 82% visible
Pressure 30.49 in
Visibility 1.0 miles
Clouds Clear
Windchill 19 °F
Dew Point 16 °F
Humidity 85%
Rainfall 0.00 in
Snow Depth Not available.
UV 0 out of 12
Pollen .10 out of 12
Air Quality Not available.
Flu Activity Not available.
METAR KJYR 301315Z AUTO 00000KT 1SM BR CLR M09/M09 A3049 RMK AO2

More Conditions Fewer Conditions

Pressure 30.49 in
Visibility 1.0 miles
Clouds Clear
Windchill 19 °F
Dew Point 16 °F
Humidity 85%
Rainfall 0.00 in
Snow Depth Not available.
UV 0 out of 12
Pollen .10 out of 12
Air Quality Not available.
Flu Activity Not available.
METAR KJYR 301315Z AUTO 00000KT 1SM BR CLR M09/M09 A3049 RMK AO2

More Conditions Fewer Conditions

Nowcast | as of 6:51 am CST on January 30, 2015

Through 830 am...light winds have resulted in some patchy fog across portions of the area. While visibilities for the most locations will be over one mile...occasional localized spots of visibilities of less than one mile are possible. Use caution if traveling this morning.

×

10-Day Weather Forecast

Almanac

Astronomy

Jan. 30, 2015 Rise Set
Actual Time
Civil Twilight
Nautical Twilight
Astronomical Twilight
Moon
Length of Visible Light
Length of Day
Tomorrow will be .
, % of the Moon is Illuminated

Today's Extremes

State Highs State Lows

Community

WunderPhotos

Upload Photos

1,791,751 photos uploaded!

WunderBlogs® & News

Nearby

Air Quality

  Air Quality AQ Index Pollutant
Not available.

Snow Depth

Station Depth Elevation

Earthquake Activity

City Distance Mag. Time & Date
Minimum magnitude displayed is 2.5.

Coastal Water Temperatures

Place Temperature

Nearby Weather Stations